createdAt,value
2023-05-11T00:02:00.854Z,100309.53
2023-05-11T00:04:31.458Z,100319.69
2023-05-11T00:07:02.132Z,100338.34
2023-05-11T00:09:32.781Z,100334.47
2023-05-11T00:12:04.302Z,100347.22
2023-05-11T00:14:34.866Z,100332.94
2023-05-11T00:17:05.277Z,100318.53
2023-05-11T00:19:35.683Z,100354.28
2023-05-11T00:22:06.611Z,100367.63
2023-05-11T00:24:37.741Z,100374.38
2023-05-11T00:27:08.180Z,100354.69
2023-05-11T00:29:38.549Z,100359.47
2023-05-11T00:32:09.150Z,100375.97
2023-05-11T00:34:39.519Z,100369.72
2023-05-11T00:37:10.219Z,100364.78
2023-05-11T00:39:41.877Z,100363.91
2023-05-11T00:42:12.783Z,100361.13
2023-05-11T00:44:43.007Z,100359.50
2023-05-11T00:47:13.451Z,100360.69
2023-05-11T00:49:43.644Z,100352.84
2023-05-11T00:52:14.237Z,100346.31
2023-05-11T00:54:44.933Z,100336.75
2023-05-11T00:57:15.777Z,100327.47
2023-05-11T00:59:46.212Z,100308.72
2023-05-11T01:02:16.675Z,100300.47
2023-05-11T01:04:47.119Z,100305.91
2023-05-11T01:07:28.489Z,100307.41
2023-05-11T01:09:58.892Z,100314.38
2023-05-11T01:12:50.103Z,100329.59
2023-05-11T01:15:31.706Z,100341.91
2023-05-11T01:18:18.037Z,100338.97
2023-05-11T01:20:49.415Z,100348.41
2023-05-11T01:23:42.470Z,100350.03
2023-05-11T01:26:26.096Z,100354.03
2023-05-11T01:29:15.168Z,100357.41
2023-05-11T01:31:47.709Z,100358.56
2023-05-11T01:34:21.908Z,100385.25
2023-05-11T01:37:07.475Z,100374.09
2023-05-11T01:39:42.561Z,100357.88
2023-05-11T01:42:13.042Z,100350.66
2023-05-11T01:44:44.586Z,100355.69
2023-05-11T01:47:14.908Z,100355.94
2023-05-11T01:49:45.914Z,100349.13
2023-05-11T01:52:16.416Z,100340.94
2023-05-11T01:54:46.803Z,100333.88
2023-05-11T01:57:18.164Z,100331.19
2023-05-11T01:59:50.599Z,100321.06
2023-05-11T02:02:21.952Z,100321.41
2023-05-11T02:04:52.322Z,100317.34
2023-05-11T02:07:23.121Z,100314.00
2023-05-11T02:09:53.682Z,100322.19
2023-05-11T02:12:24.205Z,100316.03
2023-05-11T02:14:56.252Z,100326.19
2023-05-11T02:17:27.538Z,100315.22
2023-05-11T02:19:58.873Z,100332.31
2023-05-11T02:22:29.588Z,100330.44
2023-05-11T02:25:00.175Z,100345.69
2023-05-11T02:27:31.027Z,100338.38
2023-05-11T02:30:02.255Z,100334.59
2023-05-11T02:32:34.640Z,100330.28
2023-05-11T02:35:23.575Z,100326.47
2023-05-11T02:37:56.046Z,100323.63
2023-05-11T02:40:32.193Z,100323.28
2023-05-11T02:43:13.843Z,100325.63
2023-05-11T02:45:52.744Z,100334.59
2023-05-11T02:48:27.552Z,100341.38
2023-05-11T02:50:59.218Z,100355.63
2023-05-11T02:53:35.564Z,100352.41
2023-05-11T02:56:06.505Z,100351.69
2023-05-11T02:58:39.093Z,100344.88
2023-05-11T03:01:30.834Z,100343.56
2023-05-11T03:04:01.653Z,100347.84
2023-05-11T03:06:33.616Z,100362.47
2023-05-11T03:09:06.847Z,100352.47
2023-05-11T03:11:43.843Z,100356.22
2023-05-11T03:14:15.436Z,100358.41
2023-05-11T03:16:47.320Z,100366.53
2023-05-11T03:19:19.094Z,100360.84
2023-05-11T03:21:49.411Z,100361.91
2023-05-11T03:24:20.180Z,100360.31
2023-05-11T03:26:50.611Z,100361.34
2023-05-11T03:29:22.064Z,100355.34
2023-05-11T03:31:54.010Z,100355.69
2023-05-11T03:34:25.477Z,100356.72
2023-05-11T03:36:56.372Z,100360.13
2023-05-11T03:39:27.279Z,100351.56
2023-05-11T03:41:58.508Z,100357.16
2023-05-11T03:44:29.217Z,100361.97
2023-05-11T03:46:59.728Z,100357.34
2023-05-11T03:49:30.280Z,100365.19
2023-05-11T03:52:00.660Z,100364.59
2023-05-11T03:54:31.463Z,100372.13
2023-05-11T03:57:01.935Z,100380.44
2023-05-11T03:59:32.343Z,100380.59
2023-05-11T04:02:03.040Z,100381.97
2023-05-11T04:04:33.973Z,100385.97
2023-05-11T04:07:04.594Z,100390.91
2023-05-11T04:09:35.556Z,100381.09
2023-05-11T04:12:06.387Z,100394.31
2023-05-11T04:14:37.035Z,100391.41
2023-05-11T04:17:07.879Z,100390.84
2023-05-11T04:19:38.957Z,100427.66
2023-05-11T04:22:09.891Z,100437.00
2023-05-11T04:24:40.582Z,100397.16
2023-05-11T04:27:10.966Z,100380.38
2023-05-11T04:29:41.264Z,100402.22
2023-05-11T04:32:11.923Z,100425.34
2023-05-11T04:34:42.601Z,100444.97
2023-05-11T04:37:13.618Z,100438.94
2023-05-11T04:39:45.476Z,100435.91
2023-05-11T04:42:16.048Z,100417.56
2023-05-11T04:44:48.962Z,100424.69
2023-05-11T04:47:21.199Z,100424.59
2023-05-11T04:49:53.371Z,100448.19
2023-05-11T04:52:24.123Z,100460.00
2023-05-11T04:54:55.607Z,100463.59
2023-05-11T04:57:26.595Z,100471.91
2023-05-11T04:59:57.460Z,100476.81
2023-05-11T05:02:28.102Z,100493.50
2023-05-11T05:04:58.319Z,100509.22
2023-05-11T05:07:28.998Z,100506.94
2023-05-11T05:09:59.346Z,100515.03
2023-05-11T05:12:29.708Z,100517.44
2023-05-11T05:15:00.324Z,100531.50
2023-05-11T05:17:31.098Z,100557.56
2023-05-11T05:20:02.656Z,100548.09
2023-05-11T05:22:33.487Z,100551.59
2023-05-11T05:25:05.272Z,100559.81
2023-05-11T05:27:35.758Z,100567.06
2023-05-11T05:30:09.674Z,100578.56
2023-05-11T05:32:40.241Z,100574.31
2023-05-11T05:35:10.965Z,100569.31
2023-05-11T05:37:43.018Z,100566.75
2023-05-11T05:40:13.745Z,100571.06
2023-05-11T05:42:50.780Z,100573.25
2023-05-11T05:45:24.412Z,100574.53
2023-05-11T05:47:56.007Z,100591.09
2023-05-11T05:50:26.355Z,100602.50
2023-05-11T05:52:56.846Z,100592.25
2023-05-11T05:55:29.256Z,100639.91
2023-05-11T05:58:00.790Z,100662.25
2023-05-11T06:00:31.500Z,100677.34
2023-05-11T06:03:08.035Z,100662.97
2023-05-11T06:05:39.044Z,100662.97
2023-05-11T06:08:11.313Z,100661.56
2023-05-11T06:10:42.489Z,100659.34
2023-05-11T06:13:21.375Z,100660.88
2023-05-11T06:15:59.694Z,100662.63
2023-05-11T06:18:35.449Z,100664.50
2023-05-11T06:21:08.762Z,100653.53
2023-05-11T06:23:38.981Z,100647.47
2023-05-11T06:26:10.053Z,100644.28
2023-05-11T06:28:40.894Z,100632.53
2023-05-11T06:31:16.472Z,100646.16
2023-05-11T06:33:47.321Z,100636.13
2023-05-11T06:36:25.096Z,100640.34
2023-05-11T06:38:55.127Z,100626.94
2023-05-11T06:41:26.209Z,100646.16
2023-05-11T06:43:56.531Z,100658.53
2023-05-11T06:46:37.915Z,100657.44
2023-05-11T06:49:08.035Z,100659.88
2023-05-11T06:51:38.926Z,100671.50
2023-05-11T06:54:09.126Z,100657.25
2023-05-11T06:56:39.776Z,100665.56
2023-05-11T06:59:11.272Z,100673.97
2023-05-11T07:01:41.681Z,100675.47
2023-05-11T07:04:12.065Z,100673.38
2023-05-11T07:06:42.465Z,100677.22
2023-05-11T07:09:12.941Z,100690.53
2023-05-11T07:11:43.376Z,100694.63
2023-05-11T07:14:13.676Z,100700.13
2023-05-11T07:16:44.268Z,100700.25
2023-05-11T07:19:15.042Z,100698.56
2023-05-11T07:21:45.314Z,100707.97
2023-05-11T07:24:15.585Z,100711.13
2023-05-11T07:26:45.953Z,100729.78
2023-05-11T07:29:35.554Z,100737.38
2023-05-11T07:32:10.022Z,100736.81
2023-05-11T07:34:42.535Z,100756.97
2023-05-11T07:37:13.573Z,100766.97
2023-05-11T07:39:43.723Z,100765.94
2023-05-11T07:42:14.497Z,100770.81
2023-05-11T07:44:45.049Z,100771.25
2023-05-11T07:47:15.328Z,100782.72
2023-05-11T07:49:46.052Z,100781.31
2023-05-11T07:52:16.913Z,100786.91
2023-05-11T07:54:47.233Z,100796.97
2023-05-11T07:57:17.564Z,100806.06
2023-05-11T07:59:47.876Z,100802.38
2023-05-11T08:02:18.129Z,100805.38
2023-05-11T08:04:48.502Z,100804.72
2023-05-11T08:07:19.548Z,100812.66
2023-05-11T08:09:49.690Z,100818.47
2023-05-11T08:12:19.986Z,100823.81
2023-05-11T08:14:50.762Z,100829.03
2023-05-11T08:17:21.077Z,100846.88
2023-05-11T08:19:53.015Z,100861.78
2023-05-11T08:22:23.748Z,100868.97
2023-05-11T08:24:53.908Z,100878.47
2023-05-11T08:27:24.209Z,100883.66
2023-05-11T08:29:54.486Z,100888.03
2023-05-11T08:32:25.174Z,100897.13
2023-05-11T08:34:56.136Z,100903.47
2023-05-11T08:37:26.804Z,100910.22
2023-05-11T08:39:57.086Z,100904.50
2023-05-11T08:42:27.412Z,100918.34
2023-05-11T08:45:00.884Z,100928.25
2023-05-11T08:47:32.589Z,100940.16
2023-05-11T08:50:02.977Z,100957.66
2023-05-11T08:52:33.161Z,100969.31
2023-05-11T08:55:03.564Z,100974.19
2023-05-11T08:57:34.351Z,100983.69
2023-05-11T09:00:05.983Z,100977.13
2023-05-11T09:02:37.192Z,100995.03
2023-05-11T09:05:07.655Z,101002.44
2023-05-11T09:07:38.771Z,101007.75
2023-05-11T09:10:10.478Z,101011.69
2023-05-11T09:12:43.692Z,101022.31
2023-05-11T09:15:14.727Z,101028.34
2023-05-11T09:17:45.019Z,101020.13
2023-05-11T09:20:15.403Z,101035.16
2023-05-11T09:22:46.749Z,101036.72
2023-05-11T09:25:20.671Z,101044.16
2023-05-11T09:27:51.511Z,101041.28
2023-05-11T09:30:23.876Z,101047.88
2023-05-11T09:33:01.366Z,101052.88
2023-05-11T09:35:35.733Z,101053.69
2023-05-11T09:38:13.186Z,101061.94
2023-05-11T09:40:47.794Z,101059.13
2023-05-11T09:43:19.547Z,101061.41
2023-05-11T09:45:53.997Z,101071.13
2023-05-11T09:48:24.692Z,101080.03
2023-05-11T09:51:00.918Z,101084.13
2023-05-11T09:53:38.362Z,101078.78
2023-05-11T09:56:09.426Z,101089.78
2023-05-11T09:58:52.799Z,101099.91
2023-05-11T10:01:35.921Z,101106.03
2023-05-11T10:04:22.052Z,101108.53
2023-05-11T10:06:56.410Z,101115.34
2023-05-11T10:09:26.907Z,101120.66
2023-05-11T10:11:57.467Z,101140.97
2023-05-11T10:14:29.468Z,101144.47
2023-05-11T10:17:00.754Z,101147.41
2023-05-11T10:19:30.966Z,101155.44
2023-05-11T10:22:01.181Z,101156.63
2023-05-11T10:24:31.503Z,101169.63
2023-05-11T10:27:01.911Z,101170.06
2023-05-11T10:29:32.252Z,101178.31
2023-05-11T10:32:02.502Z,101184.09
2023-05-11T10:34:32.776Z,101196.03
2023-05-11T10:37:04.153Z,101195.00
2023-05-11T10:39:34.536Z,101198.31
2023-05-11T10:42:28.209Z,101200.38
2023-05-11T10:45:08.302Z,101204.09
2023-05-11T10:47:57.085Z,101202.00
2023-05-11T10:50:30.732Z,101215.41
2023-05-11T10:53:09.845Z,101227.59
2023-05-11T10:55:55.541Z,101222.22
2023-05-11T10:58:55.128Z,101225.13
2023-05-11T11:01:33.365Z,101233.34
2023-05-11T11:04:08.405Z,101242.63
2023-05-11T11:06:43.774Z,101248.19
2023-05-11T11:09:15.095Z,101251.88
2023-05-11T11:11:49.473Z,101251.88
2023-05-11T11:14:20.716Z,101258.47
2023-05-11T11:17:30.425Z,101248.78
2023-05-11T11:20:02.680Z,101260.75
2023-05-11T11:22:39.936Z,101269.38
2023-05-11T11:25:11.040Z,101272.53
2023-05-11T11:27:47.358Z,101264.28
2023-05-11T11:30:19.701Z,101279.75
2023-05-11T11:32:55.772Z,101288.41
2023-05-11T11:35:42.497Z,101284.69
2023-05-11T11:38:18.353Z,101288.22
2023-05-11T11:40:54.957Z,101294.78
2023-05-11T11:43:29.024Z,101306.16
2023-05-11T11:45:59.906Z,101310.47
2023-05-11T11:48:39.578Z,101310.03
2023-05-11T11:51:13.647Z,101306.16
2023-05-11T11:53:45.105Z,101315.44
2023-05-11T11:56:18.569Z,101326.97
2023-05-11T11:58:49.125Z,101332.16
2023-05-11T12:01:23.589Z,101340.41
2023-05-11T12:04:06.290Z,101335.47
2023-05-11T12:06:40.671Z,101328.88
2023-05-11T12:09:11.189Z,101332.81
2023-05-11T12:11:41.390Z,101341.44
2023-05-11T12:14:11.881Z,101337.53
2023-05-11T12:16:42.364Z,101343.09
2023-05-11T12:19:12.846Z,101350.31
2023-05-11T12:21:43.402Z,101361.44
2023-05-11T12:24:14.074Z,101370.88
2023-05-11T12:26:44.280Z,101377.50
2023-05-11T12:29:15.367Z,101378.31
2023-05-11T12:31:46.451Z,101367.00
2023-05-11T12:34:17.682Z,101381.00
2023-05-11T12:36:48.807Z,101392.13
2023-05-11T12:39:20.256Z,101387.78
2023-05-11T12:41:51.484Z,101390.47
2023-05-11T12:44:30.834Z,101395.81
2023-05-11T12:47:01.402Z,101401.19
2023-05-11T12:49:31.609Z,101401.97
2023-05-11T12:52:03.724Z,101407.75
2023-05-11T12:54:39.528Z,101410.44
2023-05-11T12:57:10.396Z,101413.91
2023-05-11T12:59:41.973Z,101422.13
2023-05-11T13:02:13.531Z,101430.09
2023-05-11T13:04:44.294Z,101434.81
2023-05-11T13:07:15.117Z,101443.88
2023-05-11T13:09:47.229Z,101440.34
2023-05-11T13:12:22.212Z,101443.03
2023-05-11T13:14:53.276Z,101438.22
2023-05-11T13:17:32.820Z,101451.44
2023-05-11T13:20:18.432Z,101445.47
2023-05-11T13:22:49.265Z,101450.84
2023-05-11T13:25:21.815Z,101450.75
2023-05-11T13:27:52.544Z,101452.63
2023-05-11T13:30:23.052Z,101457.56
2023-05-11T13:32:54.781Z,101463.94
2023-05-11T13:35:25.122Z,101470.88
2023-05-11T13:37:55.382Z,101472.34
2023-05-11T13:40:26.468Z,101482.84
2023-05-11T13:42:58.126Z,101495.38
2023-05-11T13:45:28.583Z,101507.91
2023-05-11T13:47:58.835Z,101519.03
2023-05-11T13:50:29.314Z,101521.88
2023-05-11T13:52:59.534Z,101525.59
2023-05-11T13:55:30.262Z,101532.53
2023-05-11T13:58:00.903Z,101545.09
2023-05-11T14:00:31.215Z,101546.56
2023-05-11T14:03:02.002Z,101556.69
2023-05-11T14:05:32.945Z,101552.38
2023-05-11T14:08:03.441Z,101553.81
2023-05-11T14:10:34.289Z,101557.19
2023-05-11T14:13:04.704Z,101564.28
2023-05-11T14:15:36.000Z,101568.25
2023-05-11T14:18:09.747Z,101581.03
2023-05-11T14:20:40.589Z,101587.25
2023-05-11T14:23:10.862Z,101580.56
2023-05-11T14:25:41.248Z,101578.69
2023-05-11T14:28:11.586Z,101581.28
2023-05-11T14:30:41.949Z,101574.31
2023-05-11T14:33:12.340Z,101580.06
2023-05-11T14:35:42.935Z,101594.72
2023-05-11T14:38:13.289Z,101575.44
2023-05-11T14:40:44.603Z,101596.22
2023-05-11T14:43:15.347Z,101613.84
2023-05-11T14:45:45.802Z,101609.69
2023-05-11T14:48:16.172Z,101609.22
2023-05-11T14:50:46.736Z,101615.13
2023-05-11T14:53:17.232Z,101623.94
2023-05-11T14:55:48.054Z,101623.56
2023-05-11T14:58:21.235Z,101631.66
2023-05-11T15:00:51.930Z,101636.03
2023-05-11T15:03:22.505Z,101641.84
2023-05-11T15:05:53.298Z,101636.16
2023-05-11T15:08:30.093Z,101634.97
2023-05-11T15:11:01.343Z,101637.06
2023-05-11T15:13:32.101Z,101649.53
2023-05-11T15:16:02.871Z,101643.69
2023-05-11T15:18:33.367Z,101640.94
2023-05-11T15:21:06.100Z,101659.22
2023-05-11T15:23:36.464Z,101655.50
2023-05-11T15:26:06.874Z,101651.38
2023-05-11T15:28:37.286Z,101649.72
2023-05-11T15:31:07.834Z,101647.72
2023-05-11T15:33:38.603Z,101662.19
2023-05-11T15:36:13.805Z,101661.63
2023-05-11T15:38:44.794Z,101653.72
2023-05-11T15:41:15.604Z,101643.38
2023-05-11T15:43:45.950Z,101659.69
2023-05-11T15:46:16.616Z,101663.00
2023-05-11T15:48:47.217Z,101666.78
2023-05-11T15:51:17.666Z,101669.09
2023-05-11T15:53:48.216Z,101670.22
2023-05-11T15:56:18.584Z,101677.38
2023-05-11T15:58:49.140Z,101675.56
2023-05-11T16:01:20.130Z,101682.69
2023-05-11T16:03:51.006Z,101680.03
2023-05-11T16:06:21.268Z,101689.44
2023-05-11T16:08:51.707Z,101696.53
2023-05-11T16:11:22.842Z,101701.94
2023-05-11T16:13:53.251Z,101707.19
2023-05-11T16:16:23.718Z,101703.28
2023-05-11T16:18:53.979Z,101712.47
2023-05-11T16:21:24.209Z,101710.91
2023-05-11T16:23:54.874Z,101708.94
2023-05-11T16:26:25.386Z,101709.28
2023-05-11T16:28:55.678Z,101718.75
2023-05-11T16:31:26.256Z,101720.41
2023-05-11T16:33:56.679Z,101730.84
2023-05-11T16:36:27.074Z,101724.44
2023-05-11T16:38:57.424Z,101744.66
2023-05-11T16:41:30.099Z,101748.19
2023-05-11T16:44:00.328Z,101741.91
2023-05-11T16:46:30.587Z,101750.72
2023-05-11T16:49:01.249Z,101752.75
2023-05-11T16:51:31.742Z,101749.78
2023-05-11T16:54:02.190Z,101758.09
2023-05-11T16:56:32.426Z,101758.69
2023-05-11T16:59:02.760Z,101766.34
2023-05-11T17:01:33.672Z,101768.00
2023-05-11T17:04:04.323Z,101774.88
2023-05-11T17:06:44.439Z,101779.06
2023-05-11T17:09:23.473Z,101782.88
2023-05-11T17:11:54.210Z,101785.00
2023-05-11T17:14:24.946Z,101791.25
2023-05-11T17:16:55.436Z,101796.75
2023-05-11T17:19:26.375Z,101790.31
2023-05-11T17:21:56.784Z,101793.88
2023-05-11T17:24:27.737Z,101791.09
2023-05-11T17:26:58.130Z,101792.44
2023-05-11T17:29:28.607Z,101803.50
2023-05-11T17:31:59.202Z,101796.75
2023-05-11T17:34:29.937Z,101803.97
2023-05-11T17:37:00.496Z,101807.88
2023-05-11T17:39:32.148Z,101812.50
2023-05-11T17:42:02.515Z,101821.94
2023-05-11T17:44:32.970Z,101823.25
2023-05-11T17:47:03.674Z,101821.59
2023-05-11T17:49:34.363Z,101830.88
2023-05-11T17:52:04.948Z,101831.13
2023-05-11T17:54:35.153Z,101837.09
2023-05-11T17:57:08.344Z,101843.63
2023-05-11T17:59:38.743Z,101847.78
2023-05-11T18:02:09.498Z,101854.63
2023-05-11T18:04:40.225Z,101853.31
2023-05-11T18:07:10.932Z,101867.78
2023-05-11T18:09:41.496Z,101859.63
2023-05-11T18:12:13.200Z,101869.66
2023-05-11T18:14:44.137Z,101881.13
2023-05-11T18:17:14.536Z,101890.94
2023-05-11T18:19:45.266Z,101894.94
2023-05-11T18:22:15.861Z,101901.75
2023-05-11T18:24:46.222Z,101902.06
2023-05-11T18:27:16.891Z,101899.53
2023-05-11T18:29:47.640Z,101900.91
2023-05-11T18:32:19.221Z,101916.88
2023-05-11T18:34:49.830Z,101914.22
2023-05-11T18:37:20.373Z,101914.38
2023-05-11T18:39:51.723Z,101924.03
2023-05-11T18:42:22.120Z,101917.84
2023-05-11T18:44:54.832Z,101918.06
2023-05-11T18:47:25.330Z,101919.91
2023-05-11T18:49:55.914Z,101925.75
2023-05-11T18:52:26.290Z,101936.22
2023-05-11T18:54:56.802Z,101926.38
2023-05-11T18:57:27.473Z,101936.03
2023-05-11T18:59:57.833Z,101938.03
2023-05-11T19:02:28.534Z,101942.22
2023-05-11T19:04:59.006Z,101942.88
2023-05-11T19:07:29.916Z,101943.88
2023-05-11T19:10:00.545Z,101952.22
2023-05-11T19:12:33.017Z,101949.88
2023-05-11T19:15:03.392Z,101960.53
2023-05-11T19:17:33.838Z,101952.69
2023-05-11T19:20:05.340Z,101961.53
2023-05-11T19:22:35.482Z,101969.34
2023-05-11T19:25:05.827Z,101974.31
2023-05-11T19:27:35.941Z,101980.97
2023-05-11T19:30:06.576Z,101980.78
2023-05-11T19:32:37.698Z,101988.81
2023-05-11T19:35:08.604Z,101991.28
2023-05-11T19:37:39.222Z,101999.75
2023-05-11T19:40:37.394Z,101998.59
2023-05-11T19:43:00.685Z,102003.72
2023-05-11T19:45:36.015Z,102011.25
2023-05-11T19:48:06.422Z,102033.09
2023-05-11T19:50:37.633Z,102033.59
2023-05-11T19:53:07.890Z,102039.25
2023-05-11T19:55:40.078Z,102048.75
2023-05-11T19:58:10.713Z,102052.91
2023-05-11T20:00:42.934Z,102058.25
2023-05-11T20:03:13.106Z,102057.47
2023-05-11T20:05:43.544Z,102069.81
2023-05-11T20:08:14.093Z,102067.28
2023-05-11T20:10:44.384Z,102082.25
2023-05-11T20:13:15.351Z,102074.53
2023-05-11T20:15:48.987Z,102081.59
2023-05-11T20:18:20.269Z,102089.72
2023-05-11T20:20:50.440Z,102090.97
2023-05-11T20:23:20.974Z,102097.44
2023-05-11T20:25:51.798Z,102097.44
2023-05-11T20:28:28.512Z,102098.50
2023-05-11T20:30:59.113Z,102098.56
2023-05-11T20:36:02.797Z,102088.75
2023-05-11T20:38:33.157Z,102087.84
2023-05-11T20:41:03.549Z,102080.44
2023-05-11T20:43:34.212Z,102081.53
2023-05-11T20:46:05.501Z,102093.94
2023-05-11T20:48:39.775Z,102095.81
2023-05-11T20:51:11.409Z,102097.00
2023-05-11T20:53:41.532Z,102091.88
2023-05-11T20:56:14.107Z,102094.38
2023-05-11T20:58:44.509Z,102099.25
2023-05-11T21:01:15.002Z,102099.97
2023-05-11T21:03:45.509Z,102103.13
2023-05-11T21:06:15.817Z,102106.06
2023-05-11T21:08:46.256Z,102104.25
2023-05-11T21:11:16.367Z,102108.28
2023-05-11T21:13:47.209Z,102120.44
2023-05-11T21:16:17.855Z,102117.75
2023-05-11T21:18:48.384Z,102119.97
2023-05-11T21:21:20.691Z,102122.38
2023-05-11T21:23:51.071Z,102124.78
2023-05-11T21:26:21.392Z,102131.03
2023-05-11T21:28:52.044Z,102138.97
2023-05-11T21:31:22.982Z,102140.03
2023-05-11T21:33:54.811Z,102130.38
2023-05-11T21:36:25.472Z,102130.00
2023-05-11T21:38:55.841Z,102135.66
2023-05-11T21:41:26.202Z,102135.13
2023-05-11T21:43:56.522Z,102140.38
2023-05-11T21:46:26.885Z,102147.31
2023-05-11T21:48:57.544Z,102146.44
2023-05-11T21:51:27.994Z,102146.09
2023-05-11T21:53:58.460Z,102147.47
2023-05-11T21:56:28.622Z,102156.63
2023-05-11T21:58:58.745Z,102149.53
2023-05-11T22:01:29.226Z,102162.78
2023-05-11T22:04:02.499Z,102150.75
2023-05-11T22:06:33.610Z,102154.03
2023-05-11T22:09:04.227Z,102156.63
2023-05-11T22:11:35.528Z,102162.28
2023-05-11T22:14:06.841Z,102158.63
2023-05-11T22:16:37.345Z,102168.38
2023-05-11T22:19:08.345Z,102169.38
2023-05-11T22:21:38.776Z,102165.09
2023-05-11T22:24:09.648Z,102171.75
2023-05-11T22:26:39.958Z,102174.69
2023-05-11T22:29:10.912Z,102171.75
2023-05-11T22:31:42.410Z,102186.63
2023-05-11T22:34:14.188Z,102184.94
2023-05-11T22:36:44.588Z,102186.22
2023-05-11T22:39:15.351Z,102188.34
2023-05-11T22:41:45.826Z,102193.63
2023-05-11T22:44:16.416Z,102194.81
2023-05-11T22:46:47.044Z,102193.00
2023-05-11T22:49:17.850Z,102193.91
2023-05-11T22:51:48.102Z,102194.09
2023-05-11T22:54:18.506Z,102189.00
2023-05-11T22:56:48.795Z,102200.56
2023-05-11T22:59:19.475Z,102200.31
2023-05-11T23:01:49.727Z,102194.78
2023-05-11T23:04:20.077Z,102198.19
2023-05-11T23:06:50.375Z,102201.25
2023-05-11T23:09:20.787Z,102199.47
2023-05-11T23:11:52.846Z,102199.50
2023-05-11T23:14:24.007Z,102207.72
2023-05-11T23:16:54.352Z,102205.94
2023-05-11T23:19:26.562Z,102207.06
2023-05-11T23:21:56.871Z,102209.03
2023-05-11T23:24:28.075Z,102204.13
2023-05-11T23:26:58.510Z,102200.66
2023-05-11T23:29:29.485Z,102208.00
2023-05-11T23:31:59.900Z,102198.56
2023-05-11T23:34:30.158Z,102216.09
2023-05-11T23:37:00.306Z,102201.22
2023-05-11T23:39:30.709Z,102204.72
2023-05-11T23:42:02.079Z,102199.66
2023-05-11T23:44:32.986Z,102194.13
2023-05-11T23:47:03.657Z,102187.94
2023-05-11T23:49:33.868Z,102191.72
2023-05-11T23:52:07.334Z,102187.75
2023-05-11T23:54:38.048Z,102196.97
2023-05-11T23:57:08.411Z,102190.78
2023-05-11T23:59:39.093Z,102187.13
